sensor_id;sensor_type;location;lat;lon;timestamp;P1;durP1;ratioP1;P2;durP2;ratioP2
15402;SDS011;7799;53.478;10.170;2022-11-22T00:02:20;22.20;;;16.03;;
15402;SDS011;7799;53.478;10.170;2022-11-22T00:04:47;20.53;;;15.60;;
15402;SDS011;7799;53.478;10.170;2022-11-22T00:07:13;19.60;;;13.90;;
15402;SDS011;7799;53.478;10.170;2022-11-22T00:09:41;16.33;;;12.80;;
15402;SDS011;7799;53.478;10.170;2022-11-22T00:12:08;20.03;;;14.10;;
15402;SDS011;7799;53.478;10.170;2022-11-22T00:14:35;18.63;;;13.70;;
15402;SDS011;7799;53.478;10.170;2022-11-22T00:17:01;16.77;;;13.90;;
15402;SDS011;7799;53.478;10.170;2022-11-22T00:19:28;20.93;;;15.73;;
15402;SDS011;7799;53.478;10.170;2022-11-22T00:21:55;20.63;;;15.30;;
15402;SDS011;7799;53.478;10.170;2022-11-22T00:24:21;21.50;;;14.80;;
15402;SDS011;7799;53.478;10.170;2022-11-22T00:26:49;19.63;;;14.90;;
15402;SDS011;7799;53.478;10.170;2022-11-22T00:29:16;19.73;;;14.20;;
15402;SDS011;7799;53.478;10.170;2022-11-22T00:31:43;19.03;;;14.50;;
15402;SDS011;7799;53.478;10.170;2022-11-22T00:34:09;18.37;;;14.47;;
15402;SDS011;7799;53.478;10.170;2022-11-22T00:36:36;21.00;;;15.50;;
15402;SDS011;7799;53.478;10.170;2022-11-22T00:39:03;21.60;;;16.13;;
15402;SDS011;7799;53.478;10.170;2022-11-22T00:41:29;21.37;;;16.60;;
15402;SDS011;7799;53.478;10.170;2022-11-22T00:43:57;21.33;;;15.60;;
15402;SDS011;7799;53.478;10.170;2022-11-22T00:46:24;20.67;;;15.93;;
15402;SDS011;7799;53.478;10.170;2022-11-22T00:48:51;24.10;;;16.97;;
15402;SDS011;7799;53.478;10.170;2022-11-22T00:51:17;22.33;;;16.43;;
15402;SDS011;7799;53.478;10.170;2022-11-22T00:53:44;22.77;;;17.97;;
15402;SDS011;7799;53.478;10.170;2022-11-22T00:56:11;17.83;;;13.47;;
15402;SDS011;7799;53.478;10.170;2022-11-22T00:58:37;23.00;;;16.30;;
15402;SDS011;7799;53.478;10.170;2022-11-22T01:01:05;20.97;;;15.60;;
15402;SDS011;7799;53.478;10.170;2022-11-22T01:03:32;17.30;;;13.60;;
15402;SDS011;7799;53.478;10.170;2022-11-22T01:05:59;20.37;;;15.97;;
15402;SDS011;7799;53.478;10.170;2022-11-22T01:08:25;20.93;;;15.20;;
15402;SDS011;7799;53.478;10.170;2022-11-22T01:10:55;20.97;;;14.47;;
15402;SDS011;7799;53.478;10.170;2022-11-22T01:13:23;23.07;;;17.13;;
15402;SDS011;7799;53.478;10.170;2022-11-22T01:15:49;22.83;;;16.47;;
15402;SDS011;7799;53.478;10.170;2022-11-22T01:18:17;23.63;;;16.90;;
15402;SDS011;7799;53.478;10.170;2022-11-22T01:20:44;23.40;;;17.17;;
15402;SDS011;7799;53.478;10.170;2022-11-22T01:23:11;24.30;;;17.10;;
15402;SDS011;7799;53.478;10.170;2022-11-22T01:25:40;24.03;;;17.97;;
15402;SDS011;7799;53.478;10.170;2022-11-22T01:28:07;22.13;;;17.10;;
15402;SDS011;7799;53.478;10.170;2022-11-22T01:30:34;20.33;;;15.00;;
15402;SDS011;7799;53.478;10.170;2022-11-22T01:33:01;22.13;;;16.47;;
15402;SDS011;7799;53.478;10.170;2022-11-22T01:35:29;26.60;;;17.17;;
15402;SDS011;7799;53.478;10.170;2022-11-22T01:37:55;27.53;;;17.60;;
15402;SDS011;7799;53.478;10.170;2022-11-22T01:40:22;23.93;;;17.10;;
15402;SDS011;7799;53.478;10.170;2022-11-22T01:42:49;22.07;;;16.57;;
15402;SDS011;7799;53.478;10.170;2022-11-22T01:45:38;28.57;;;18.13;;
15402;SDS011;7799;53.478;10.170;2022-11-22T01:48:12;24.33;;;17.57;;
15402;SDS011;7799;53.478;10.170;2022-11-22T01:50:46;24.37;;;17.67;;
15402;SDS011;7799;53.478;10.170;2022-11-22T01:53:16;23.73;;;16.33;;
15402;SDS011;7799;53.478;10.170;2022-11-22T01:55:45;25.60;;;17.43;;
15402;SDS011;7799;53.478;10.170;2022-11-22T01:58:13;22.67;;;16.03;;
15402;SDS011;7799;53.478;10.170;2022-11-22T02:00:40;25.40;;;17.70;;
15402;SDS011;7799;53.478;10.170;2022-11-22T02:03:08;23.43;;;17.20;;
15402;SDS011;7799;53.478;10.170;2022-11-22T02:05:36;23.03;;;16.23;;
15402;SDS011;7799;53.478;10.170;2022-11-22T02:08:06;22.97;;;15.33;;
15402;SDS011;7799;53.478;10.170;2022-11-22T02:10:36;24.73;;;18.40;;
15402;SDS011;7799;53.478;10.170;2022-11-22T02:13:05;25.63;;;19.10;;
15402;SDS011;7799;53.478;10.170;2022-11-22T02:15:33;24.03;;;17.63;;
15402;SDS011;7799;53.478;10.170;2022-11-22T02:18:00;26.67;;;18.90;;
15402;SDS011;7799;53.478;10.170;2022-11-22T02:20:27;25.90;;;18.73;;
15402;SDS011;7799;53.478;10.170;2022-11-22T02:22:54;25.20;;;17.93;;
15402;SDS011;7799;53.478;10.170;2022-11-22T02:25:26;21.40;;;16.17;;
15402;SDS011;7799;53.478;10.170;2022-11-22T02:27:57;24.93;;;17.13;;
15402;SDS011;7799;53.478;10.170;2022-11-22T02:30:23;22.17;;;17.00;;
15402;SDS011;7799;53.478;10.170;2022-11-22T02:32:50;27.10;;;18.80;;
15402;SDS011;7799;53.478;10.170;2022-11-22T02:35:18;25.53;;;18.77;;
15402;SDS011;7799;53.478;10.170;2022-11-22T02:37:46;23.60;;;17.10;;
15402;SDS011;7799;53.478;10.170;2022-11-22T02:40:15;22.03;;;15.90;;
15402;SDS011;7799;53.478;10.170;2022-11-22T02:42:43;22.50;;;16.27;;
15402;SDS011;7799;53.478;10.170;2022-11-22T02:45:14;25.30;;;17.77;;
15402;SDS011;7799;53.478;10.170;2022-11-22T02:47:41;23.10;;;17.03;;
15402;SDS011;7799;53.478;10.170;2022-11-22T02:50:08;23.83;;;17.10;;
15402;SDS011;7799;53.478;10.170;2022-11-22T02:52:35;24.97;;;16.40;;
15402;SDS011;7799;53.478;10.170;2022-11-22T02:55:01;22.00;;;15.93;;
15402;SDS011;7799;53.478;10.170;2022-11-22T02:57:28;21.17;;;15.83;;
15402;SDS011;7799;53.478;10.170;2022-11-22T02:59:55;23.03;;;17.20;;
15402;SDS011;7799;53.478;10.170;2022-11-22T03:02:23;26.13;;;18.70;;
15402;SDS011;7799;53.478;10.170;2022-11-22T03:04:50;25.03;;;18.67;;
15402;SDS011;7799;53.478;10.170;2022-11-22T03:07:16;25.53;;;17.87;;
15402;SDS011;7799;53.478;10.170;2022-11-22T03:09:43;26.63;;;19.03;;
15402;SDS011;7799;53.478;10.170;2022-11-22T03:12:10;23.10;;;18.13;;
15402;SDS011;7799;53.478;10.170;2022-11-22T03:14:36;24.90;;;17.17;;
15402;SDS011;7799;53.478;10.170;2022-11-22T03:17:03;23.37;;;17.53;;
15402;SDS011;7799;53.478;10.170;2022-11-22T03:19:31;25.83;;;18.07;;
15402;SDS011;7799;53.478;10.170;2022-11-22T03:21:58;24.73;;;17.40;;
15402;SDS011;7799;53.478;10.170;2022-11-22T03:24:25;21.43;;;16.00;;
15402;SDS011;7799;53.478;10.170;2022-11-22T03:26:51;22.53;;;17.47;;
15402;SDS011;7799;53.478;10.170;2022-11-22T03:29:18;22.13;;;16.57;;
15402;SDS011;7799;53.478;10.170;2022-11-22T03:31:45;22.17;;;16.97;;
15402;SDS011;7799;53.478;10.170;2022-11-22T03:34:11;22.47;;;16.70;;
15402;SDS011;7799;53.478;10.170;2022-11-22T03:36:41;23.77;;;17.77;;
15402;SDS011;7799;53.478;10.170;2022-11-22T03:39:08;22.00;;;16.70;;
15402;SDS011;7799;53.478;10.170;2022-11-22T03:41:34;24.53;;;18.70;;
15402;SDS011;7799;53.478;10.170;2022-11-22T03:44:01;24.33;;;18.17;;
15402;SDS011;7799;53.478;10.170;2022-11-22T03:46:28;24.97;;;18.13;;
15402;SDS011;7799;53.478;10.170;2022-11-22T03:48:55;24.23;;;18.37;;
15402;SDS011;7799;53.478;10.170;2022-11-22T03:51:21;21.77;;;16.37;;
15402;SDS011;7799;53.478;10.170;2022-11-22T03:53:49;19.77;;;15.50;;
15402;SDS011;7799;53.478;10.170;2022-11-22T03:56:16;23.20;;;16.77;;
15402;SDS011;7799;53.478;10.170;2022-11-22T03:58:43;21.87;;;16.40;;
15402;SDS011;7799;53.478;10.170;2022-11-22T04:01:09;21.60;;;16.77;;
15402;SDS011;7799;53.478;10.170;2022-11-22T04:03:36;22.60;;;15.87;;
15402;SDS011;7799;53.478;10.170;2022-11-22T04:06:03;25.90;;;18.80;;
15402;SDS011;7799;53.478;10.170;2022-11-22T04:08:29;22.37;;;15.07;;
15402;SDS011;7799;53.478;10.170;2022-11-22T04:10:57;22.60;;;16.63;;
15402;SDS011;7799;53.478;10.170;2022-11-22T04:13:24;18.23;;;14.30;;
15402;SDS011;7799;53.478;10.170;2022-11-22T04:16:11;22.40;;;16.67;;
15402;SDS011;7799;53.478;10.170;2022-11-22T04:18:37;22.10;;;15.70;;
15402;SDS011;7799;53.478;10.170;2022-11-22T04:21:03;21.10;;;15.03;;
15402;SDS011;7799;53.478;10.170;2022-11-22T04:23:47;21.13;;;15.13;;
15402;SDS011;7799;53.478;10.170;2022-11-22T04:26:35;24.40;;;16.97;;
15402;SDS011;7799;53.478;10.170;2022-11-22T04:29:01;22.67;;;16.63;;
15402;SDS011;7799;53.478;10.170;2022-11-22T04:31:28;24.00;;;18.80;;
15402;SDS011;7799;53.478;10.170;2022-11-22T04:34:12;25.10;;;18.57;;
15402;SDS011;7799;53.478;10.170;2022-11-22T04:36:39;22.53;;;17.70;;
15402;SDS011;7799;53.478;10.170;2022-11-22T04:39:06;25.60;;;18.20;;
15402;SDS011;7799;53.478;10.170;2022-11-22T04:41:33;23.40;;;17.57;;
15402;SDS011;7799;53.478;10.170;2022-11-22T04:44:01;26.30;;;18.57;;
15402;SDS011;7799;53.478;10.170;2022-11-22T04:46:45;20.83;;;17.50;;
15402;SDS011;7799;53.478;10.170;2022-11-22T04:49:11;20.57;;;16.23;;
15402;SDS011;7799;53.478;10.170;2022-11-22T04:51:38;28.30;;;20.70;;
15402;SDS011;7799;53.478;10.170;2022-11-22T04:54:24;21.87;;;17.30;;
15402;SDS011;7799;53.478;10.170;2022-11-22T04:56:51;24.23;;;16.90;;
15402;SDS011;7799;53.478;10.170;2022-11-22T04:59:19;21.40;;;16.07;;
15402;SDS011;7799;53.478;10.170;2022-11-22T05:01:46;22.67;;;17.07;;
15402;SDS011;7799;53.478;10.170;2022-11-22T05:04:13;19.60;;;16.00;;
15402;SDS011;7799;53.478;10.170;2022-11-22T05:06:40;20.03;;;14.90;;
15402;SDS011;7799;53.478;10.170;2022-11-22T05:09:06;21.77;;;17.03;;
15402;SDS011;7799;53.478;10.170;2022-11-22T05:11:33;18.57;;;14.73;;
15402;SDS011;7799;53.478;10.170;2022-11-22T05:14:00;24.20;;;18.10;;
15402;SDS011;7799;53.478;10.170;2022-11-22T05:16:29;22.13;;;16.77;;
15402;SDS011;7799;53.478;10.170;2022-11-22T05:18:55;22.57;;;16.47;;
15402;SDS011;7799;53.478;10.170;2022-11-22T05:21:24;22.23;;;17.37;;
15402;SDS011;7799;53.478;10.170;2022-11-22T05:23:52;22.07;;;17.10;;
15402;SDS011;7799;53.478;10.170;2022-11-22T05:26:20;21.67;;;16.13;;
15402;SDS011;7799;53.478;10.170;2022-11-22T05:28:47;21.53;;;17.23;;
15402;SDS011;7799;53.478;10.170;2022-11-22T05:31:14;22.00;;;16.77;;
15402;SDS011;7799;53.478;10.170;2022-11-22T05:33:44;24.53;;;18.50;;
15402;SDS011;7799;53.478;10.170;2022-11-22T05:36:11;23.53;;;17.10;;
15402;SDS011;7799;53.478;10.170;2022-11-22T05:38:38;24.57;;;18.53;;
15402;SDS011;7799;53.478;10.170;2022-11-22T05:41:05;24.40;;;17.60;;
15402;SDS011;7799;53.478;10.170;2022-11-22T05:43:33;22.87;;;17.57;;
15402;SDS011;7799;53.478;10.170;2022-11-22T05:46:03;26.47;;;19.70;;
15402;SDS011;7799;53.478;10.170;2022-11-22T05:48:31;24.57;;;19.40;;
15402;SDS011;7799;53.478;10.170;2022-11-22T05:51:02;26.23;;;19.67;;
15402;SDS011;7799;53.478;10.170;2022-11-22T05:53:29;24.37;;;19.57;;
15402;SDS011;7799;53.478;10.170;2022-11-22T05:55:56;24.47;;;18.07;;
15402;SDS011;7799;53.478;10.170;2022-11-22T05:58:22;28.27;;;20.60;;
15402;SDS011;7799;53.478;10.170;2022-11-22T06:00:49;24.07;;;19.23;;
15402;SDS011;7799;53.478;10.170;2022-11-22T06:03:16;25.50;;;19.37;;
15402;SDS011;7799;53.478;10.170;2022-11-22T06:05:49;26.53;;;19.97;;
15402;SDS011;7799;53.478;10.170;2022-11-22T06:08:17;22.57;;;17.87;;
15402;SDS011;7799;53.478;10.170;2022-11-22T06:10:44;25.53;;;20.03;;
15402;SDS011;7799;53.478;10.170;2022-11-22T06:13:11;25.30;;;20.37;;
15402;SDS011;7799;53.478;10.170;2022-11-22T06:15:37;22.00;;;18.27;;
15402;SDS011;7799;53.478;10.170;2022-11-22T06:18:04;23.07;;;18.57;;
15402;SDS011;7799;53.478;10.170;2022-11-22T06:20:31;27.37;;;20.63;;
15402;SDS011;7799;53.478;10.170;2022-11-22T06:22:57;26.23;;;19.50;;
15402;SDS011;7799;53.478;10.170;2022-11-22T06:25:25;26.67;;;20.03;;
15402;SDS011;7799;53.478;10.170;2022-11-22T06:27:52;25.70;;;19.20;;
15402;SDS011;7799;53.478;10.170;2022-11-22T06:30:19;27.93;;;18.43;;
15402;SDS011;7799;53.478;10.170;2022-11-22T06:32:46;26.20;;;19.23;;
15402;SDS011;7799;53.478;10.170;2022-11-22T06:35:12;27.40;;;20.77;;
15402;SDS011;7799;53.478;10.170;2022-11-22T06:37:39;26.67;;;19.90;;
15402;SDS011;7799;53.478;10.170;2022-11-22T06:40:06;25.33;;;20.07;;
15402;SDS011;7799;53.478;10.170;2022-11-22T06:42:37;26.73;;;19.87;;
15402;SDS011;7799;53.478;10.170;2022-11-22T06:45:04;28.97;;;20.67;;
15402;SDS011;7799;53.478;10.170;2022-11-22T06:47:31;27.00;;;20.20;;
15402;SDS011;7799;53.478;10.170;2022-11-22T06:49:58;27.40;;;20.07;;
15402;SDS011;7799;53.478;10.170;2022-11-22T06:52:24;27.73;;;21.83;;
15402;SDS011;7799;53.478;10.170;2022-11-22T06:54:51;26.70;;;20.53;;
15402;SDS011;7799;53.478;10.170;2022-11-22T06:57:18;28.53;;;21.90;;
15402;SDS011;7799;53.478;10.170;2022-11-22T06:59:47;30.90;;;22.37;;
15402;SDS011;7799;53.478;10.170;2022-11-22T07:02:14;23.37;;;19.40;;
15402;SDS011;7799;53.478;10.170;2022-11-22T07:04:41;23.90;;;18.30;;
15402;SDS011;7799;53.478;10.170;2022-11-22T07:07:07;27.67;;;20.80;;
15402;SDS011;7799;53.478;10.170;2022-11-22T07:09:35;27.87;;;20.67;;
15402;SDS011;7799;53.478;10.170;2022-11-22T07:12:02;29.27;;;21.37;;
15402;SDS011;7799;53.478;10.170;2022-11-22T07:14:29;25.07;;;19.03;;
15402;SDS011;7799;53.478;10.170;2022-11-22T07:16:57;24.57;;;18.90;;
15402;SDS011;7799;53.478;10.170;2022-11-22T07:19:24;22.00;;;16.90;;
15402;SDS011;7799;53.478;10.170;2022-11-22T07:21:50;24.77;;;18.07;;
15402;SDS011;7799;53.478;10.170;2022-11-22T07:24:17;24.63;;;19.03;;
15402;SDS011;7799;53.478;10.170;2022-11-22T07:26:44;23.47;;;18.63;;
15402;SDS011;7799;53.478;10.170;2022-11-22T07:29:11;24.83;;;19.07;;
15402;SDS011;7799;53.478;10.170;2022-11-22T07:31:37;26.83;;;20.00;;
15402;SDS011;7799;53.478;10.170;2022-11-22T07:34:05;25.63;;;20.03;;
15402;SDS011;7799;53.478;10.170;2022-11-22T07:36:32;26.13;;;19.80;;
15402;SDS011;7799;53.478;10.170;2022-11-22T07:38:59;23.93;;;18.07;;
15402;SDS011;7799;53.478;10.170;2022-11-22T07:41:27;25.63;;;19.00;;
15402;SDS011;7799;53.478;10.170;2022-11-22T07:43:54;25.23;;;19.43;;
15402;SDS011;7799;53.478;10.170;2022-11-22T07:46:21;26.07;;;20.30;;
15402;SDS011;7799;53.478;10.170;2022-11-22T07:48:50;23.60;;;18.50;;
15402;SDS011;7799;53.478;10.170;2022-11-22T07:51:18;25.10;;;19.83;;
15402;SDS011;7799;53.478;10.170;2022-11-22T07:53:45;24.33;;;19.00;;
15402;SDS011;7799;53.478;10.170;2022-11-22T07:56:11;22.67;;;17.23;;
15402;SDS011;7799;53.478;10.170;2022-11-22T07:58:38;26.77;;;21.53;;
15402;SDS011;7799;53.478;10.170;2022-11-22T08:01:05;23.57;;;19.63;;
15402;SDS011;7799;53.478;10.170;2022-11-22T08:03:33;25.77;;;20.00;;
15402;SDS011;7799;53.478;10.170;2022-11-22T08:06:00;25.20;;;19.70;;
15402;SDS011;7799;53.478;10.170;2022-11-22T08:08:29;24.93;;;18.33;;
15402;SDS011;7799;53.478;10.170;2022-11-22T08:10:55;27.17;;;20.50;;
15402;SDS011;7799;53.478;10.170;2022-11-22T08:13:22;29.33;;;22.33;;
15402;SDS011;7799;53.478;10.170;2022-11-22T08:15:49;26.20;;;19.70;;
15402;SDS011;7799;53.478;10.170;2022-11-22T08:18:16;24.03;;;18.97;;
15402;SDS011;7799;53.478;10.170;2022-11-22T08:20:42;25.13;;;19.37;;
15402;SDS011;7799;53.478;10.170;2022-11-22T08:23:09;27.37;;;21.20;;
15402;SDS011;7799;53.478;10.170;2022-11-22T08:25:37;27.33;;;20.83;;
15402;SDS011;7799;53.478;10.170;2022-11-22T08:28:04;28.00;;;21.17;;
15402;SDS011;7799;53.478;10.170;2022-11-22T08:30:30;26.33;;;19.53;;
15402;SDS011;7799;53.478;10.170;2022-11-22T08:32:57;26.87;;;20.70;;
15402;SDS011;7799;53.478;10.170;2022-11-22T08:35:24;24.03;;;19.93;;
15402;SDS011;7799;53.478;10.170;2022-11-22T08:37:53;24.67;;;18.60;;
15402;SDS011;7799;53.478;10.170;2022-11-22T08:40:21;25.07;;;20.73;;
15402;SDS011;7799;53.478;10.170;2022-11-22T08:42:49;27.17;;;21.40;;
15402;SDS011;7799;53.478;10.170;2022-11-22T08:45:18;23.80;;;19.17;;
15402;SDS011;7799;53.478;10.170;2022-11-22T08:47:45;27.03;;;20.83;;
15402;SDS011;7799;53.478;10.170;2022-11-22T08:50:13;26.30;;;21.23;;
15402;SDS011;7799;53.478;10.170;2022-11-22T08:52:40;24.00;;;18.30;;
15402;SDS011;7799;53.478;10.170;2022-11-22T08:55:07;27.63;;;20.97;;
15402;SDS011;7799;53.478;10.170;2022-11-22T08:57:34;27.50;;;21.30;;
15402;SDS011;7799;53.478;10.170;2022-11-22T09:00:02;28.60;;;21.53;;
15402;SDS011;7799;53.478;10.170;2022-11-22T09:02:30;26.27;;;20.57;;
15402;SDS011;7799;53.478;10.170;2022-11-22T09:04:57;28.77;;;20.13;;
15402;SDS011;7799;53.478;10.170;2022-11-22T09:07:23;23.37;;;18.47;;
15402;SDS011;7799;53.478;10.170;2022-11-22T09:09:50;25.83;;;19.77;;
15402;SDS011;7799;53.478;10.170;2022-11-22T09:12:17;27.50;;;20.43;;
15402;SDS011;7799;53.478;10.170;2022-11-22T09:14:43;26.00;;;20.20;;
15402;SDS011;7799;53.478;10.170;2022-11-22T09:17:11;25.33;;;19.57;;
15402;SDS011;7799;53.478;10.170;2022-11-22T09:19:38;26.60;;;20.70;;
15402;SDS011;7799;53.478;10.170;2022-11-22T09:22:05;27.60;;;20.40;;
15402;SDS011;7799;53.478;10.170;2022-11-22T09:24:31;26.83;;;20.87;;
15402;SDS011;7799;53.478;10.170;2022-11-22T09:26:58;26.53;;;20.03;;
15402;SDS011;7799;53.478;10.170;2022-11-22T09:29:25;23.83;;;18.73;;
15402;SDS011;7799;53.478;10.170;2022-11-22T09:31:51;23.23;;;17.90;;
15402;SDS011;7799;53.478;10.170;2022-11-22T09:34:21;27.47;;;20.27;;
15402;SDS011;7799;53.478;10.170;2022-11-22T09:36:48;24.20;;;18.57;;
15402;SDS011;7799;53.478;10.170;2022-11-22T09:39:15;24.53;;;18.37;;
15402;SDS011;7799;53.478;10.170;2022-11-22T09:41:45;26.80;;;20.30;;
15402;SDS011;7799;53.478;10.170;2022-11-22T09:44:27;24.13;;;18.60;;
15402;SDS011;7799;53.478;10.170;2022-11-22T09:47:01;25.00;;;19.07;;
15402;SDS011;7799;53.478;10.170;2022-11-22T09:49:37;26.37;;;19.50;;
15402;SDS011;7799;53.478;10.170;2022-11-22T09:52:11;23.50;;;18.37;;
15402;SDS011;7799;53.478;10.170;2022-11-22T09:54:41;23.53;;;17.07;;
15402;SDS011;7799;53.478;10.170;2022-11-22T09:57:12;22.57;;;17.60;;
15402;SDS011;7799;53.478;10.170;2022-11-22T09:59:42;24.13;;;18.47;;
15402;SDS011;7799;53.478;10.170;2022-11-22T10:02:11;24.97;;;19.00;;
15402;SDS011;7799;53.478;10.170;2022-11-22T10:04:44;23.70;;;18.83;;
15402;SDS011;7799;53.478;10.170;2022-11-22T10:07:14;23.03;;;17.90;;
15402;SDS011;7799;53.478;10.170;2022-11-22T10:09:45;27.60;;;20.07;;
15402;SDS011;7799;53.478;10.170;2022-11-22T10:12:16;25.97;;;20.83;;
15402;SDS011;7799;53.478;10.170;2022-11-22T10:14:46;26.07;;;20.87;;
15402;SDS011;7799;53.478;10.170;2022-11-22T10:17:20;28.43;;;20.80;;
15402;SDS011;7799;53.478;10.170;2022-11-22T10:19:58;22.67;;;17.40;;
15402;SDS011;7799;53.478;10.170;2022-11-22T10:22:29;23.30;;;17.57;;
15402;SDS011;7799;53.478;10.170;2022-11-22T10:24:57;23.83;;;17.80;;
15402;SDS011;7799;53.478;10.170;2022-11-22T10:27:25;24.47;;;18.13;;
15402;SDS011;7799;53.478;10.170;2022-11-22T10:29:55;26.23;;;20.53;;
15402;SDS011;7799;53.478;10.170;2022-11-22T10:32:24;24.73;;;18.70;;
15402;SDS011;7799;53.478;10.170;2022-11-22T10:35:00;22.93;;;18.30;;
15402;SDS011;7799;53.478;10.170;2022-11-22T10:37:36;23.73;;;19.47;;
15402;SDS011;7799;53.478;10.170;2022-11-22T10:40:09;25.33;;;19.30;;
15402;SDS011;7799;53.478;10.170;2022-11-22T10:42:45;23.27;;;17.70;;
15402;SDS011;7799;53.478;10.170;2022-11-22T10:45:23;25.10;;;18.73;;
15402;SDS011;7799;53.478;10.170;2022-11-22T10:47:55;26.13;;;19.13;;
15402;SDS011;7799;53.478;10.170;2022-11-22T10:50:32;24.70;;;18.53;;
15402;SDS011;7799;53.478;10.170;2022-11-22T10:53:02;24.90;;;18.67;;
15402;SDS011;7799;53.478;10.170;2022-11-22T10:55:38;24.20;;;18.07;;
15402;SDS011;7799;53.478;10.170;2022-11-22T10:58:16;21.47;;;16.33;;
15402;SDS011;7799;53.478;10.170;2022-11-22T11:00:48;24.00;;;19.63;;
15402;SDS011;7799;53.478;10.170;2022-11-22T11:03:22;23.20;;;17.47;;
15402;SDS011;7799;53.478;10.170;2022-11-22T11:05:54;24.03;;;19.10;;
15402;SDS011;7799;53.478;10.170;2022-11-22T11:08:28;22.80;;;17.97;;
15402;SDS011;7799;53.478;10.170;2022-11-22T11:10:57;22.53;;;18.63;;
15402;SDS011;7799;53.478;10.170;2022-11-22T11:13:26;20.60;;;15.80;;
15402;SDS011;7799;53.478;10.170;2022-11-22T11:15:55;22.00;;;16.77;;
15402;SDS011;7799;53.478;10.170;2022-11-22T11:18:24;24.63;;;18.50;;
15402;SDS011;7799;53.478;10.170;2022-11-22T11:20:55;21.43;;;17.70;;
15402;SDS011;7799;53.478;10.170;2022-11-22T11:23:22;20.97;;;17.07;;
15402;SDS011;7799;53.478;10.170;2022-11-22T11:25:49;26.57;;;19.57;;
15402;SDS011;7799;53.478;10.170;2022-11-22T11:28:17;21.10;;;17.33;;
15402;SDS011;7799;53.478;10.170;2022-11-22T11:30:46;21.13;;;15.73;;
15402;SDS011;7799;53.478;10.170;2022-11-22T11:33:16;20.97;;;16.60;;
15402;SDS011;7799;53.478;10.170;2022-11-22T11:35:45;21.60;;;16.90;;
15402;SDS011;7799;53.478;10.170;2022-11-22T11:38:30;21.43;;;16.90;;
15402;SDS011;7799;53.478;10.170;2022-11-22T11:40:58;21.93;;;16.27;;
15402;SDS011;7799;53.478;10.170;2022-11-22T11:43:42;18.47;;;15.63;;
15402;SDS011;7799;53.478;10.170;2022-11-22T11:46:13;20.23;;;16.37;;
15402;SDS011;7799;53.478;10.170;2022-11-22T11:48:41;23.83;;;18.23;;
15402;SDS011;7799;53.478;10.170;2022-11-22T11:51:12;19.43;;;15.77;;
15402;SDS011;7799;53.478;10.170;2022-11-22T11:53:42;21.57;;;17.17;;
15402;SDS011;7799;53.478;10.170;2022-11-22T11:56:16;24.43;;;19.07;;
15402;SDS011;7799;53.478;10.170;2022-11-22T11:58:48;21.43;;;17.30;;
15402;SDS011;7799;53.478;10.170;2022-11-22T12:01:16;23.80;;;18.27;;
15402;SDS011;7799;53.478;10.170;2022-11-22T12:03:49;21.70;;;17.03;;
15402;SDS011;7799;53.478;10.170;2022-11-22T12:06:16;20.83;;;16.60;;
15402;SDS011;7799;53.478;10.170;2022-11-22T12:08:45;23.03;;;18.27;;
15402;SDS011;7799;53.478;10.170;2022-11-22T12:11:12;22.83;;;18.47;;
15402;SDS011;7799;53.478;10.170;2022-11-22T12:13:45;21.93;;;17.57;;
15402;SDS011;7799;53.478;10.170;2022-11-22T12:16:17;20.60;;;15.60;;
15402;SDS011;7799;53.478;10.170;2022-11-22T12:18:47;19.10;;;16.53;;
15402;SDS011;7799;53.478;10.170;2022-11-22T12:21:25;22.80;;;17.50;;
15402;SDS011;7799;53.478;10.170;2022-11-22T12:23:57;20.90;;;16.80;;
15402;SDS011;7799;53.478;10.170;2022-11-22T12:26:26;19.20;;;15.33;;
15402;SDS011;7799;53.478;10.170;2022-11-22T12:28:54;20.57;;;16.40;;
15402;SDS011;7799;53.478;10.170;2022-11-22T12:31:24;20.23;;;16.73;;
15402;SDS011;7799;53.478;10.170;2022-11-22T12:33:53;22.10;;;14.77;;
15402;SDS011;7799;53.478;10.170;2022-11-22T12:36:25;20.97;;;15.83;;
15402;SDS011;7799;53.478;10.170;2022-11-22T12:38:54;21.77;;;16.97;;
15402;SDS011;7799;53.478;10.170;2022-11-22T12:41:26;20.07;;;16.17;;
15402;SDS011;7799;53.478;10.170;2022-11-22T12:43:53;21.87;;;16.87;;
15402;SDS011;7799;53.478;10.170;2022-11-22T12:46:23;24.27;;;18.93;;
15402;SDS011;7799;53.478;10.170;2022-11-22T12:48:53;24.93;;;18.97;;
15402;SDS011;7799;53.478;10.170;2022-11-22T12:51:23;21.47;;;16.23;;
15402;SDS011;7799;53.478;10.170;2022-11-22T12:53:52;20.13;;;15.63;;
15402;SDS011;7799;53.478;10.170;2022-11-22T12:56:23;20.23;;;17.57;;
15402;SDS011;7799;53.478;10.170;2022-11-22T12:58:54;25.07;;;18.03;;
15402;SDS011;7799;53.478;10.170;2022-11-22T13:01:27;23.67;;;19.03;;
15402;SDS011;7799;53.478;10.170;2022-11-22T13:03:56;24.47;;;18.63;;
15402;SDS011;7799;53.478;10.170;2022-11-22T13:06:27;23.83;;;18.60;;
15402;SDS011;7799;53.478;10.170;2022-11-22T13:08:59;23.67;;;18.53;;
15402;SDS011;7799;53.478;10.170;2022-11-22T13:11:29;24.60;;;18.80;;
15402;SDS011;7799;53.478;10.170;2022-11-22T13:13:59;22.70;;;18.17;;
15402;SDS011;7799;53.478;10.170;2022-11-22T13:16:30;21.00;;;16.60;;
15402;SDS011;7799;53.478;10.170;2022-11-22T13:18:57;22.90;;;18.40;;
15402;SDS011;7799;53.478;10.170;2022-11-22T13:21:29;26.27;;;19.77;;
15402;SDS011;7799;53.478;10.170;2022-11-22T13:24:04;23.67;;;18.30;;
15402;SDS011;7799;53.478;10.170;2022-11-22T13:26:42;22.40;;;17.87;;
15402;SDS011;7799;53.478;10.170;2022-11-22T13:29:15;23.70;;;18.33;;
15402;SDS011;7799;53.478;10.170;2022-11-22T13:32:05;24.93;;;19.70;;
15402;SDS011;7799;53.478;10.170;2022-11-22T13:34:40;26.60;;;19.63;;
15402;SDS011;7799;53.478;10.170;2022-11-22T13:37:09;26.13;;;19.53;;
15402;SDS011;7799;53.478;10.170;2022-11-22T13:39:40;24.97;;;19.27;;
15402;SDS011;7799;53.478;10.170;2022-11-22T13:42:10;22.60;;;18.00;;
15402;SDS011;7799;53.478;10.170;2022-11-22T13:44:51;26.60;;;20.27;;
15402;SDS011;7799;53.478;10.170;2022-11-22T13:47:33;21.17;;;17.67;;
15402;SDS011;7799;53.478;10.170;2022-11-22T13:53:22;23.37;;;18.57;;
15402;SDS011;7799;53.478;10.170;2022-11-22T13:55:52;24.67;;;19.77;;
15402;SDS011;7799;53.478;10.170;2022-11-22T14:01:28;20.73;;;15.23;;
15402;SDS011;7799;53.478;10.170;2022-11-22T14:04:24;23.40;;;18.27;;
15402;SDS011;7799;53.478;10.170;2022-11-22T14:06:54;21.03;;;16.73;;
15402;SDS011;7799;53.478;10.170;2022-11-22T14:09:28;21.50;;;16.30;;
15402;SDS011;7799;53.478;10.170;2022-11-22T14:15:04;19.43;;;16.80;;
15402;SDS011;7799;53.478;10.170;2022-11-22T14:17:38;25.10;;;18.30;;
15402;SDS011;7799;53.478;10.170;2022-11-22T14:20:09;21.63;;;16.53;;
15402;SDS011;7799;53.478;10.170;2022-11-22T14:22:51;21.30;;;16.87;;
15402;SDS011;7799;53.478;10.170;2022-11-22T14:25:29;21.43;;;16.70;;
15402;SDS011;7799;53.478;10.170;2022-11-22T14:28:07;26.03;;;19.23;;
15402;SDS011;7799;53.478;10.170;2022-11-22T14:30:42;19.50;;;15.67;;
15402;SDS011;7799;53.478;10.170;2022-11-22T14:33:13;20.73;;;17.13;;
15402;SDS011;7799;53.478;10.170;2022-11-22T14:38:46;22.90;;;17.47;;
15402;SDS011;7799;53.478;10.170;2022-11-22T14:44:13;24.37;;;18.73;;
15402;SDS011;7799;53.478;10.170;2022-11-22T14:46:43;24.33;;;18.50;;
15402;SDS011;7799;53.478;10.170;2022-11-22T14:49:13;21.63;;;17.20;;